Time;durP1;ratioP1;P1;durP2;ratioP2;P2;SDS_P1;SDS_P2;PMS_P1;PMS_P2;Temp;Humidity;BMP_temperature;BMP_pressure;BME280_temperature;BME280_humidity;BME280_pressure;Samples;Min_cycle;Max_cycle;Signal;HPM_P1;HPM_P2
2021/12/02 00:00:59;;;;;;;;;;;;;;;7.62;80.81;99731.38;4994650;28;20497;-89
2021/12/02 00:03:27;;;;;;;;;;;;;;;7.58;79.58;99741.41;4995700;28;19941;-88
2021/12/02 00:05:53;;;;;;;;;;;;;;;7.54;80.43;99754.06;4995979;28;19974;-89
2021/12/02 00:08:20;;;;;;;;;;;;;;;7.46;79.77;99748.50;4993448;28;19930;-89
2021/12/02 00:10:48;;;;;;;;;;;;;;;7.41;80.54;99746.19;4997952;28;19910;-89
2021/12/02 00:13:20;;;;;;;;;;;;;;;7.36;80.11;99752.81;4996249;28;19933;-88
2021/12/02 00:15:52;;;;;;;;;;;;;;;7.36;80.02;99752.81;4995591;28;19949;-89
2021/12/02 00:21:06;;;;;;;;;;;;;;;7.34;80.70;99760.88;4994105;28;19934;-89
2021/12/02 00:23:34;;;;;;;;;;;;;;;7.34;80.60;99762.72;4993105;28;19938;-89
2021/12/02 00:26:02;;;;;;;;;;;;;;;7.34;80.01;99774.16;4999685;28;19930;-89
2021/12/02 00:28:30;;;;;;;;;;;;;;;7.33;79.67;99764.53;4997861;28;19934;-89
2021/12/02 00:30:59;;;;;;;;;;;;;;;7.30;79.77;99766.56;4997141;28;19926;-89
2021/12/02 00:33:28;;;;;;;;;;;;;;;7.29;80.22;99762.19;4997230;28;19930;-89
2021/12/02 00:35:55;;;;;;;;;;;;;;;7.26;79.73;99763.28;4993491;28;19973;-89
2021/12/02 00:38:23;;;;;;;;;;;;;;;7.24;79.61;99767.88;4996433;28;19953;-89
2021/12/02 00:40:50;;;;;;;;;;;;;;;7.21;79.97;99774.28;4997174;28;19937;-89
2021/12/02 00:43:17;;;;;;;;;;;;;;;7.20;79.14;99769.06;4987837;28;19930;-89
2021/12/02 00:45:44;;;;;;;;;;;;;;;7.18;78.94;99771.00;4995826;28;19985;-89
2021/12/02 00:48:11;;;;;;;;;;;;;;;7.15;78.46;99758.78;4997559;28;19925;-89
2021/12/02 00:50:40;;;;;;;;;;;;;;;7.13;78.77;99750.09;5002731;28;19965;-89
2021/12/02 00:53:07;;;;;;;;;;;;;;;7.11;78.55;99754.66;4998230;28;19965;-89
2021/12/02 00:55:35;;;;;;;;;;;;;;;7.10;78.89;99749.47;4993982;28;19949;-89
2021/12/02 00:58:03;;;;;;;;;;;;;;;7.08;79.60;99749.56;4996826;28;19910;-89
2021/12/02 01:00:31;;;;;;;;;;;;;;;7.07;78.53;99744.41;5000977;28;19953;-89
2021/12/02 01:02:59;;;;;;;;;;;;;;;7.06;79.66;99753.31;4997669;28;19910;-89
2021/12/02 01:05:27;;;;;;;;;;;;;;;7.05;79.07;99755.13;5001982;28;19966;-89
2021/12/02 01:07:55;;;;;;;;;;;;;;;7.05;78.28;99763.09;5001491;28;19926;-88
2021/12/02 01:10:22;;;;;;;;;;;;;;;7.02;78.47;99771.28;4999564;28;21242;-89
2021/12/02 01:12:49;;;;;;;;;;;;;;;6.97;78.53;99776.94;4998987;28;19942;-89
2021/12/02 01:15:17;;;;;;;;;;;;;;;6.95;79.18;99780.66;4999752;28;19934;-89
2021/12/02 01:17:44;;;;;;;;;;;;;;;6.93;79.18;99779.91;4998126;28;19926;-89
2021/12/02 01:20:12;;;;;;;;;;;;;;;6.90;79.33;99781.00;4999025;28;19958;-89
2021/12/02 01:22:40;;;;;;;;;;;;;;;6.85;78.78;99775.19;5000443;28;19910;-88
2021/12/02 01:25:09;;;;;;;;;;;;;;;6.83;79.98;99774.44;4986650;23;20077;-93
2021/12/02 01:27:37;;;;;;;;;;;;;;;6.85;79.17;99780.50;4958132;28;19934;-93
2021/12/02 01:30:04;;;;;;;;;;;;;;;6.86;79.51;99781.34;4958111;28;19934;-93
2021/12/02 01:32:33;;;;;;;;;;;;;;;6.87;79.88;99781.22;4957754;28;19985;-93
2021/12/02 01:35:02;;;;;;;;;;;;;;;6.90;79.64;99777.50;4958453;28;19934;-93
2021/12/02 01:37:29;;;;;;;;;;;;;;;6.89;79.51;99781.13;4957896;28;19930;-93
2021/12/02 01:39:56;;;;;;;;;;;;;;;6.90;80.21;99774.84;4957207;28;19941;-93
2021/12/02 01:42:26;;;;;;;;;;;;;;;6.91;79.57;99777.41;4957828;28;19993;-93
2021/12/02 01:44:54;;;;;;;;;;;;;;;6.92;79.64;99780.91;4955960;28;19934;-93
2021/12/02 01:47:22;;;;;;;;;;;;;;;6.93;79.22;99771.97;4954218;28;19930;-93
2021/12/02 01:49:51;;;;;;;;;;;;;;;6.94;79.80;99768.34;4954986;28;19937;-93
2021/12/02 01:52:21;;;;;;;;;;;;;;;6.93;79.49;99772.81;4954446;28;19996;-93
2021/12/02 01:54:47;;;;;;;;;;;;;;;6.89;79.01;99775.81;4953761;28;20274;-93
2021/12/02 01:57:23;;;;;;;;;;;;;;;6.89;79.17;99767.84;4957491;28;19954;-93
2021/12/02 01:59:53;;;;;;;;;;;;;;;6.88;79.01;99764.34;4955561;28;20014;-92
2021/12/02 02:02:21;;;;;;;;;;;;;;;6.87;79.35;99760.00;4955765;28;19934;-93
2021/12/02 02:04:48;;;;;;;;;;;;;;;6.87;78.87;99770.59;4957041;28;20021;-93
2021/12/02 02:07:15;;;;;;;;;;;;;;;6.86;78.50;99765.44;4956671;28;20348;-93
2021/12/02 02:09:42;;;;;;;;;;;;;;;6.84;79.02;99768.19;4956959;28;19953;-93
2021/12/02 02:12:10;;;;;;;;;;;;;;;6.82;78.68;99770.97;4957101;28;19930;-93
2021/12/02 02:14:37;;;;;;;;;;;;;;;6.82;78.98;99775.44;4959724;28;19993;-93
2021/12/02 02:17:14;;;;;;;;;;;;;;;6.80;78.46;99775.53;4961235;28;19926;-93
2021/12/02 02:19:41;;;;;;;;;;;;;;;6.75;78.50;99798.91;4971237;28;19982;-92
2021/12/02 02:22:09;;;;;;;;;;;;;;;6.72;78.80;99801.75;4968991;28;20394;-93
2021/12/02 02:24:36;;;;;;;;;;;;;;;6.72;78.72;99801.75;4973488;28;20644;-93
2021/12/02 02:27:03;;;;;;;;;;;;;;;6.73;79.18;99805.28;4963530;28;19973;-93
2021/12/02 02:29:30;;;;;;;;;;;;;;;6.70;79.63;99798.38;4957207;28;19934;-93
2021/12/02 02:31:57;;;;;;;;;;;;;;;6.67;78.82;99801.28;4957286;28;19986;-93
2021/12/02 02:34:25;;;;;;;;;;;;;;;6.62;79.10;99801.59;4952913;28;19993;-93
2021/12/02 02:36:53;;;;;;;;;;;;;;;6.61;79.08;99791.09;4960211;28;19966;-92
2021/12/02 02:39:22;;;;;;;;;;;;;;;6.60;79.50;99792.91;4956073;28;21311;-93
2021/12/02 02:41:55;;;;;;;;;;;;;;;6.60;79.64;99794.72;4955749;28;19929;-93
2021/12/02 02:44:22;;;;;;;;;;;;;;;6.59;79.26;99787.69;4955448;28;20017;-93
2021/12/02 02:46:49;;;;;;;;;;;;;;;6.58;78.81;99797.47;4955633;28;20029;-93
2021/12/02 02:49:16;;;;;;;;;;;;;;;6.58;78.86;99791.31;4955091;28;19985;-93
2021/12/02 02:51:44;;;;;;;;;;;;;;;6.59;79.06;99793.00;4956119;28;20009;-93
2021/12/02 02:54:12;;;;;;;;;;;;;;;6.57;78.19;99795.78;4955659;28;19930;-93
2021/12/02 02:56:45;;;;;;;;;;;;;;;6.56;78.63;99807.34;4954993;28;19930;-93
2021/12/02 02:59:21;;;;;;;;;;;;;;;6.53;78.44;99814.66;4958884;28;20347;-93
2021/12/02 03:01:59;;;;;;;;;;;;;;;6.53;78.41;99810.19;4955232;28;20024;-93
2021/12/02 03:04:32;;;;;;;;;;;;;;;6.53;78.64;99812.00;4954293;28;19930;-93
2021/12/02 03:07:03;;;;;;;;;;;;;;;6.54;78.43;99817.22;4955481;28;19973;-93
2021/12/02 03:09:57;;;;;;;;;;;;;;;6.53;78.66;99804.91;4957125;28;20387;-93
2021/12/02 03:12:27;;;;;;;;;;;;;;;6.51;78.87;99806.81;4957875;28;19937;-93
2021/12/02 03:17:37;;;;;;;;;;;;;;;6.51;78.92;99795.38;4932990;28;20334;-91
2021/12/02 03:20:04;;;;;;;;;;;;;;;6.52;78.26;99795.25;4952556;28;19939;-93
2021/12/02 03:22:31;;;;;;;;;;;;;;;6.51;78.63;99800.66;4959069;28;19980;-92
2021/12/02 03:24:58;;;;;;;;;;;;;;;6.49;78.60;99802.59;4955020;28;19927;-92
2021/12/02 03:27:26;;;;;;;;;;;;;;;6.48;78.57;99796.44;4958504;28;20382;-93
2021/12/02 03:29:52;;;;;;;;;;;;;;;6.50;78.33;99798.97;4955943;28;20279;-92
2021/12/02 03:32:19;;;;;;;;;;;;;;;6.54;78.85;99793.34;4954825;28;19930;-93
2021/12/02 03:34:45;;;;;;;;;;;;;;;6.56;78.37;99795.91;4948622;28;20526;-92
2021/12/02 03:37:12;;;;;;;;;;;;;;;6.57;78.71;99792.25;4952396;28;19937;-92
2021/12/02 03:39:39;;;;;;;;;;;;;;;6.57;78.45;99792.25;4956105;28;19934;-92
2021/12/02 03:42:06;;;;;;;;;;;;;;;6.55;78.78;99799.50;4953815;28;20386;-93
2021/12/02 03:44:34;;;;;;;;;;;;;;;6.55;78.83;99821.56;4955397;28;19944;-93
2021/12/02 03:47:00;;;;;;;;;;;;;;;6.51;78.48;99816.59;4954022;28;20022;-93
2021/12/02 03:49:27;;;;;;;;;;;;;;;6.48;79.20;99820.31;4954336;28;20032;-93
2021/12/02 03:51:54;;;;;;;;;;;;;;;6.47;78.75;99818.59;4952168;28;19934;-93
2021/12/02 03:54:20;;;;;;;;;;;;;;;6.43;78.92;99817.13;4955902;28;20511;-93
2021/12/02 03:56:47;;;;;;;;;;;;;;;6.42;79.36;99818.06;4952349;28;19934;-93
2021/12/02 03:59:14;;;;;;;;;;;;;;;6.43;79.44;99807.38;4956200;28;20443;-93
2021/12/02 04:01:42;;;;;;;;;;;;;;;6.44;79.51;99810.84;4957564;28;19955;-93
2021/12/02 04:04:08;;;;;;;;;;;;;;;6.44;79.43;99810.84;4956281;28;20348;-93
2021/12/02 04:06:34;;;;;;;;;;;;;;;6.43;79.77;99802.06;4967761;28;19972;-92
2021/12/02 04:09:04;;;;;;;;;;;;;;;6.41;79.74;99800.50;4970685;28;20017;-93
2021/12/02 04:11:33;;;;;;;;;;;;;;;6.41;80.55;99803.13;4973420;28;19914;-93
2021/12/02 04:14:14;;;;;;;;;;;;;;;6.43;79.88;99806.53;4971118;28;19930;-92
2021/12/02 04:16:51;;;;;;;;;;;;;;;6.42;79.36;99794.22;4954936;28;20294;-93
2021/12/02 04:19:18;;;;;;;;;;;;;;;6.41;79.75;99803.13;4956006;28;19937;-92
2021/12/02 04:21:44;;;;;;;;;;;;;;;6.41;79.85;99806.63;4951123;28;19977;-92
2021/12/02 04:24:11;;;;;;;;;;;;;;;6.40;80.01;99822.66;4955049;28;21411;-93
2021/12/02 04:26:39;;;;;;;;;;;;;;;6.38;79.19;99829.88;4960208;28;19950;-93
2021/12/02 04:29:06;;;;;;;;;;;;;;;6.32;79.75;99833.78;4959786;28;19927;-93
2021/12/02 04:31:32;;;;;;;;;;;;;;;6.27;79.38;99824.47;4959801;28;20398;-93
2021/12/02 04:34:00;;;;;;;;;;;;;;;6.22;79.54;99825.66;4960913;28;20437;-92
2021/12/02 04:36:26;;;;;;;;;;;;;;;6.19;79.18;99825.84;4958363;28;19940;-92
2021/12/02 04:38:53;;;;;;;;;;;;;;;6.17;79.21;99822.47;4959284;28;19930;-93
2021/12/02 04:41:19;;;;;;;;;;;;;;;6.13;79.20;99817.50;4958837;28;19980;-93
2021/12/02 04:43:46;;;;;;;;;;;;;;;6.13;78.87;99814.84;4957304;28;19976;-93
2021/12/02 04:46:14;;;;;;;;;;;;;;;6.13;79.13;99809.53;4960103;28;19937;-93
2021/12/02 04:48:40;;;;;;;;;;;;;;;6.15;79.12;99805.81;4960517;28;19949;-92
2021/12/02 04:51:08;;;;;;;;;;;;;;;6.17;79.05;99809.22;4957563;28;19936;-92
2021/12/02 04:53:35;;;;;;;;;;;;;;;6.19;79.02;99814.41;4954910;28;19930;-93
2021/12/02 04:56:01;;;;;;;;;;;;;;;6.18;78.80;99813.56;4961727;28;19937;-93
2021/12/02 04:58:28;;;;;;;;;;;;;;;6.20;78.59;99816.13;4955219;28;19921;-93
2021/12/02 05:00:55;;;;;;;;;;;;;;;6.20;78.55;99816.13;4958365;28;20061;-93
2021/12/02 05:03:23;;;;;;;;;;;;;;;6.19;78.57;99817.91;4956373;28;19934;-92
2021/12/02 05:05:49;;;;;;;;;;;;;;;6.18;78.07;99826.81;4957674;28;19937;-93
2021/12/02 05:08:17;;;;;;;;;;;;;;;6.20;78.34;99834.69;4958973;28;20012;-92
2021/12/02 05:10:44;;;;;;;;;;;;;;;6.21;78.60;99831.88;4955604;28;19930;-93
2021/12/02 05:13:10;;;;;;;;;;;;;;;6.20;78.64;99822.25;4957303;28;19941;-93
2021/12/02 05:15:36;;;;;;;;;;;;;;;6.21;78.74;99826.59;4956150;28;20060;-93
2021/12/02 05:18:03;;;;;;;;;;;;;;;6.24;78.83;99822.91;4959167;28;20013;-93
2021/12/02 05:20:30;;;;;;;;;;;;;;;6.26;78.44;99825.44;4956998;28;20018;-92
2021/12/02 05:22:56;;;;;;;;;;;;;;;6.23;78.69;99821.19;4954041;28;20390;-93
2021/12/02 05:25:24;;;;;;;;;;;;;;;6.23;78.22;99821.19;4955227;28;19940;-93
2021/12/02 05:27:51;;;;;;;;;;;;;;;6.21;78.67;99829.25;4958195;28;19940;-93
2021/12/02 05:30:17;;;;;;;;;;;;;;;6.20;79.00;99824.06;4958388;28;19970;-93
2021/12/02 05:32:44;;;;;;;;;;;;;;;6.20;78.43;99818.78;4958800;28;20056;-92
2021/12/02 05:35:10;;;;;;;;;;;;;;;6.18;78.68;99823.34;4961575;28;19934;-92
2021/12/02 05:37:37;;;;;;;;;;;;;;;6.20;78.88;99819.59;4954783;28;19923;-92
2021/12/02 05:40:04;;;;;;;;;;;;;;;6.17;78.66;99829.56;4957338;28;19930;-92
2021/12/02 05:42:31;;;;;;;;;;;;;;;6.13;78.13;99822.81;4956572;28;19935;-92
2021/12/02 05:44:58;;;;;;;;;;;;;;;6.11;78.61;99822.06;4956294;28;20031;-92
2021/12/02 05:47:24;;;;;;;;;;;;;;;6.08;78.66;99817.81;4953100;28;19930;-92
2021/12/02 05:49:51;;;;;;;;;;;;;;;6.08;78.84;99822.25;4955157;28;20025;-92
2021/12/02 05:52:17;;;;;;;;;;;;;;;6.07;79.04;99833.84;4957487;28;20267;-92
2021/12/02 05:54:44;;;;;;;;;;;;;;;6.07;78.47;99836.50;4954932;28;19930;-92
2021/12/02 05:57:10;;;;;;;;;;;;;;;6.06;78.40;99838.28;4951889;28;19930;-92
2021/12/02 05:59:38;;;;;;;;;;;;;;;6.06;78.71;99840.06;4952143;28;20034;-91
2021/12/02 06:02:07;;;;;;;;;;;;;;;6.07;78.39;99834.69;4952013;28;19930;-91
2021/12/02 06:04:33;;;;;;;;;;;;;;;6.03;78.09;99836.69;4953502;28;19967;-91
2021/12/02 06:07:00;;;;;;;;;;;;;;;6.04;77.82;99854.28;4955753;28;19956;-91
2021/12/02 06:09:26;;;;;;;;;;;;;;;6.06;77.65;99863.94;4953028;28;20044;-92
2021/12/02 06:11:53;;;;;;;;;;;;;;;6.02;77.09;99869.44;4951809;28;19981;-92
2021/12/02 06:14:19;;;;;;;;;;;;;;;5.99;77.23;99868.78;4954060;28;19940;-92
2021/12/02 06:16:47;;;;;;;;;;;;;;;5.96;77.25;99871.69;4956518;28;19930;-92
2021/12/02 06:19:13;;;;;;;;;;;;;;;5.95;77.28;99886.75;4957431;28;19941;-93
2021/12/02 06:21:40;;;;;;;;;;;;;;;5.91;77.55;99893.13;4953840;28;19935;-92
2021/12/02 06:24:08;;;;;;;;;;;;;;;5.88;77.24;99906.63;4961836;28;20305;-93
2021/12/02 06:26:35;;;;;;;;;;;;;;;5.84;77.66;99908.63;4954069;28;19934;-93
2021/12/02 06:29:03;;;;;;;;;;;;;;;5.82;77.17;99913.19;4958750;28;19926;-92
2021/12/02 06:31:31;;;;;;;;;;;;;;;5.80;77.82;99903.63;4956756;28;20037;-92
2021/12/02 06:33:59;;;;;;;;;;;;;;;5.80;77.92;99893.00;4961646;28;20574;-94
2021/12/02 06:36:25;;;;;;;;;;;;;;;5.78;77.87;99887.84;4958201;28;19986;-92
2021/12/02 06:38:52;;;;;;;;;;;;;;;5.77;77.82;99883.47;4959726;28;19933;-92
2021/12/02 06:41:19;;;;;;;;;;;;;;;5.76;78.14;99895.03;4955504;28;19926;-92
2021/12/02 06:43:46;;;;;;;;;;;;;;;5.78;77.63;99894.91;4960224;28;20353;-93
2021/12/02 06:46:12;;;;;;;;;;;;;;;5.77;77.50;99877.34;4954717;28;19934;-93
2021/12/02 06:48:39;;;;;;;;;;;;;;;5.76;77.75;99891.53;4957793;28;19985;-92
2021/12/02 06:53:55;;;;;;;;;;;;;;;5.72;77.70;99885.59;4969538;28;19969;-93
2021/12/02 06:56:22;;;;;;;;;;;;;;;5.71;77.53;99897.16;4967219;28;19930;-93
2021/12/02 06:58:51;;;;;;;;;;;;;;;5.71;77.53;99894.50;4963512;28;19979;-93
2021/12/02 07:01:19;;;;;;;;;;;;;;;5.68;76.99;99900.00;4969716;28;19938;-93
2021/12/02 07:03:45;;;;;;;;;;;;;;;5.66;77.35;99896.59;4978936;28;19933;-92
2021/12/02 07:06:21;;;;;;;;;;;;;;;5.68;77.79;99892.03;4980730;28;19914;-93
2021/12/02 07:08:48;;;;;;;;;;;;;;;5.69;77.31;99892.88;4978729;28;20002;-93
2021/12/02 07:16:37;;;;;;;;;;;;;;;5.70;77.40;99894.59;4968997;28;19957;-92
2021/12/02 07:19:04;;;;;;;;;;;;;;;5.68;77.10;99894.69;4970747;28;19917;-93
2021/12/02 07:21:34;;;;;;;;;;;;;;;5.67;77.22;99906.25;4970749;28;19993;-92
2021/12/02 07:26:42;;;;;;;;;;;;;;;5.65;77.17;99913.44;4965520;28;19934;-94
2021/12/02 07:29:09;;;;;;;;;;;;;;;5.66;77.34;99923.09;4972041;28;19930;-93
2021/12/02 07:31:36;;;;;;;;;;;;;;;5.67;77.44;99916.84;4964850;28;19990;-94
2021/12/02 07:34:03;;;;;;;;;;;;;;;5.65;77.02;99913.44;4969462;28;20457;-94
2021/12/02 07:36:31;;;;;;;;;;;;;;;5.63;77.18;99915.34;4964716;28;19965;-93
2021/12/02 07:39:01;;;;;;;;;;;;;;;5.62;77.31;99917.16;4966736;28;19934;-93
2021/12/02 07:41:28;;;;;;;;;;;;;;;5.64;77.72;99925.00;4966299;28;20045;-93
2021/12/02 07:43:54;;;;;;;;;;;;;;;5.68;77.90;99937.06;4962597;28;19985;-93
2021/12/02 07:46:21;;;;;;;;;;;;;;;5.67;77.76;99938.03;4958196;28;20355;-93
2021/12/02 07:48:48;;;;;;;;;;;;;;;5.63;77.52;99940.03;4962652;28;20029;-93
2021/12/02 07:51:16;;;;;;;;;;;;;;;5.61;77.55;99941.06;4959295;28;19962;-93
2021/12/02 07:53:43;;;;;;;;;;;;;;;5.60;77.56;99952.63;4957142;28;19971;-93
2021/12/02 07:56:20;;;;;;;;;;;;;;;5.58;77.64;99959.84;4968796;28;19961;-93
2021/12/02 07:58:47;;;;;;;;;;;;;;;5.55;77.62;99966.16;4964116;28;20314;-93
2021/12/02 08:01:14;;;;;;;;;;;;;;;5.57;78.24;99966.91;4962176;28;19962;-93
2021/12/02 08:03:44;;;;;;;;;;;;;;;5.57;77.98;99963.44;4966674;28;19946;-93
2021/12/02 08:06:11;;;;;;;;;;;;;;;5.56;78.15;99967.88;4971052;28;19933;-93
2021/12/02 08:08:38;;;;;;;;;;;;;;;5.58;78.88;99978.38;4967044;28;19966;-94
2021/12/02 08:11:06;;;;;;;;;;;;;;;5.58;78.12;99979.22;4965966;28;19974;-93
2021/12/02 08:13:34;;;;;;;;;;;;;;;5.60;78.57;99992.38;4969354;28;19937;-93
2021/12/02 08:16:01;;;;;;;;;;;;;;;5.61;78.50;99989.63;4967997;28;19953;-93
2021/12/02 08:18:31;;;;;;;;;;;;;;;5.63;78.53;100000.97;4967055;28;19930;-93
2021/12/02 08:20:58;;;;;;;;;;;;;;;5.65;78.40;100004.38;4969693;28;19933;-93
2021/12/02 08:23:25;;;;;;;;;;;;;;;5.67;78.22;100006.94;4968591;28;19930;-93
2021/12/02 08:25:53;;;;;;;;;;;;;;;5.68;77.95;100007.75;4960889;28;20491;-93
2021/12/02 08:28:19;;;;;;;;;;;;;;;5.70;78.21;100014.66;4966796;28;20054;-93
2021/12/02 08:30:49;;;;;;;;;;;;;;;5.70;77.85;100009.34;4966933;28;19926;-92
2021/12/02 08:33:18;;;;;;;;;;;;;;;5.73;78.21;100013.63;4966683;28;19934;-92
2021/12/02 08:35:45;;;;;;;;;;;;;;;5.75;78.10;100022.31;4971209;28;19953;-93
2021/12/02 08:40:52;;;;;;;;;;;;;;;5.77;77.64;100018.59;4965561;28;19989;-93
2021/12/02 08:43:18;;;;;;;;;;;;;;;5.79;77.97;100029.94;4966934;28;19927;-93
2021/12/02 08:45:45;;;;;;;;;;;;;;;5.80;78.13;100028.16;4959489;28;20040;-92
2021/12/02 08:48:13;;;;;;;;;;;;;;;5.82;78.07;100037.72;4963189;28;19958;-92
2021/12/02 08:50:40;;;;;;;;;;;;;;;5.83;77.96;100033.25;4959462;28;19926;-92
2021/12/02 08:53:08;;;;;;;;;;;;;;;5.84;77.76;100034.97;4964029;28;20375;-92
2021/12/02 08:55:35;;;;;;;;;;;;;;;5.87;77.90;100041.84;4959381;28;19941;-92
2021/12/02 08:58:04;;;;;;;;;;;;;;;5.89;78.04;100038.16;4959728;28;20383;-93
2021/12/02 09:00:34;;;;;;;;;;;;;;;5.90;77.74;100036.38;4960155;28;20350;-92
2021/12/02 09:03:01;;;;;;;;;;;;;;;5.90;77.44;100044.31;4961314;28;19927;-93
2021/12/02 09:05:29;;;;;;;;;;;;;;;5.91;77.95;100044.19;4968477;28;19942;-93
2021/12/02 09:07:55;;;;;;;;;;;;;;;5.92;78.16;100051.22;4964427;28;19958;-93
2021/12/02 09:10:25;;;;;;;;;;;;;;;5.94;77.94;100054.59;4968137;28;19930;-93
2021/12/02 09:12:53;;;;;;;;;;;;;;;5.95;78.02;100058.09;4970823;28;19950;-92
2021/12/02 09:15:19;;;;;;;;;;;;;;;5.97;78.66;100062.41;4965244;28;19930;-93
2021/12/02 09:17:49;;;;;;;;;;;;;;;6.01;78.86;100057.75;4973888;28;19965;-93
2021/12/02 09:20:17;;;;;;;;;;;;;;;6.07;78.96;100053.84;4982508;28;19930;-94
2021/12/02 09:56:33;;;;;;;;;;;;;;;6.90;79.04;100111.97;4969860;28;19985;-86
2021/12/02 10:05:35;;;;;;;;;;;;;;;7.03;77.74;100118.13;4991121;28;20301;-86
2021/12/02 16:18:56;;;;;;;;;;;;;;;7.07;72.29;100685.22;4976949;28;20455;-86
2021/12/02 16:21:24;;;;;;;;;;;;;;;7.01;73.54;100690.91;5007166;28;19926;-88
2021/12/02 16:23:51;;;;;;;;;;;;;;;6.93;73.26;100704.63;5008375;28;19957;-89
2021/12/02 16:26:18;;;;;;;;;;;;;;;6.86;72.57;100692.66;5010672;28;19926;-88
2021/12/02 16:28:44;;;;;;;;;;;;;;;6.78;73.88;100689.56;5010338;28;20049;-88
2021/12/02 16:31:11;;;;;;;;;;;;;;;6.73;73.96;100703.13;5004424;28;20015;-88
2021/12/02 16:33:38;;;;;;;;;;;;;;;6.69;74.27;100696.28;5002724;28;19933;-88
2021/12/02 16:36:06;;;;;;;;;;;;;;;6.66;73.62;100699.09;5002065;28;19989;-88
2021/12/02 16:38:34;;;;;;;;;;;;;;;6.63;74.17;100692.19;5005141;28;19933;-87
2021/12/02 16:41:00;;;;;;;;;;;;;;;6.61;74.72;100696.72;4997137;28;20214;-87
2021/12/02 16:43:28;;;;;;;;;;;;;;;6.59;74.75;100693.31;5012313;28;19930;-87
2021/12/02 16:45:56;;;;;;;;;;;;;;;6.58;74.49;100696.91;5017581;28;20368;-87
2021/12/02 16:48:22;;;;;;;;;;;;;;;6.57;74.83;100687.25;5018473;28;19909;-87
2021/12/02 16:50:51;;;;;;;;;;;;;;;6.56;74.97;100687.31;5017914;28;19963;-87
2021/12/02 16:53:18;;;;;;;;;;;;;;;6.54;75.16;100683.91;5018525;28;20457;-86
2021/12/02 16:55:46;;;;;;;;;;;;;;;6.51;74.92;100682.28;5025787;28;19972;-87
2021/12/02 16:58:13;;;;;;;;;;;;;;;6.47;74.62;100683.38;5019664;28;19934;-87
2021/12/02 17:00:42;;;;;;;;;;;;;;;6.46;75.11;100694.09;5003489;28;20499;-88
2021/12/02 17:03:09;;;;;;;;;;;;;;;6.43;74.54;100700.44;5000825;28;19997;-87
2021/12/02 17:05:36;;;;;;;;;;;;;;;6.40;74.88;100703.25;5005648;28;19937;-87
2021/12/02 17:08:03;;;;;;;;;;;;;;;6.39;75.07;100710.34;5004899;28;19949;-87
2021/12/02 17:10:30;;;;;;;;;;;;;;;6.38;75.10;100718.41;5004374;28;19964;-88
2021/12/02 17:13:01;;;;;;;;;;;;;;;6.37;74.92;100730.81;5004003;28;19922;-86
2021/12/02 17:15:28;;;;;;;;;;;;;;;6.36;75.59;100730.91;5005268;28;19940;-87
2021/12/02 17:17:55;;;;;;;;;;;;;;;6.35;75.57;100742.47;5001176;28;20036;-87
2021/12/02 17:20:24;;;;;;;;;;;;;;;6.32;75.36;100748.78;5003665;28;19973;-88
2021/12/02 17:22:51;;;;;;;;;;;;;;;6.31;75.35;100755.03;5005664;28;19930;-87
2021/12/02 17:25:17;;;;;;;;;;;;;;;6.28;75.47;100751.69;5005133;28;19926;-88
2021/12/02 17:27:44;;;;;;;;;;;;;;;6.22;75.61;100739.63;5006277;28;19936;-87
2021/12/02 17:30:13;;;;;;;;;;;;;;;6.16;75.40;100732.88;5007031;28;19965;-87
2021/12/02 17:32:46;;;;;;;;;;;;;;;6.13;75.39;100724.22;5006835;28;19916;-89
2021/12/02 17:35:15;;;;;;;;;;;;;;;6.09;75.70;100734.13;5002618;28;19914;-87
2021/12/02 17:37:42;;;;;;;;;;;;;;;6.09;75.65;100733.28;5005141;28;19957;-88
2021/12/02 17:40:11;;;;;;;;;;;;;;;6.07;75.38;100736.03;5007209;28;19934;-88
2021/12/02 17:42:38;;;;;;;;;;;;;;;6.04;75.73;100736.19;5003070;28;19934;-89
2021/12/02 17:45:07;;;;;;;;;;;;;;;6.02;75.86;100736.25;5005254;28;19934;-88
2021/12/02 17:47:34;;;;;;;;;;;;;;;6.01;76.08;100731.91;5007423;28;19982;-87
2021/12/02 17:50:06;;;;;;;;;;;;;;;6.01;75.78;100728.41;5007951;28;19933;-87
2021/12/02 17:52:32;;;;;;;;;;;;;;;5.99;76.06;100730.25;5004973;28;20192;-88
2021/12/02 17:54:59;;;;;;;;;;;;;;;5.96;75.93;100727.78;5005436;28;20414;-87
2021/12/02 17:57:25;;;;;;;;;;;;;;;5.92;75.95;100735.03;5004426;28;19993;-87
2021/12/02 17:59:52;;;;;;;;;;;;;;;5.90;75.95;100736.06;5019987;28;20020;-87
2021/12/02 18:02:19;;;;;;;;;;;;;;;5.89;76.28;100736.97;5022407;28;19926;-87
2021/12/02 18:04:48;;;;;;;;;;;;;;;5.87;76.25;100731.75;5021680;28;19957;-87
2021/12/02 18:07:15;;;;;;;;;;;;;;;5.83;76.37;100732.88;5023114;28;19934;-87
2021/12/02 18:09:41;;;;;;;;;;;;;;;5.82;76.38;100737.31;5020943;28;19934;-87
2021/12/02 18:12:09;;;;;;;;;;;;;;;5.81;76.46;100740.88;5025348;28;19929;-88
2021/12/02 18:14:35;;;;;;;;;;;;;;;5.77;76.44;100747.28;5025346;28;19934;-88
2021/12/02 18:17:04;;;;;;;;;;;;;;;5.77;76.67;100754.41;5027640;28;19972;-87
2021/12/02 18:19:30;;;;;;;;;;;;;;;5.76;76.64;100750.03;5021267;28;19945;-88
2021/12/02 18:22:01;;;;;;;;;;;;;;;5.76;76.86;100747.38;5023937;28;20305;-88
2021/12/02 18:24:27;;;;;;;;;;;;;;;5.71;76.52;100754.69;5024094;28;19996;-88
2021/12/02 18:26:54;;;;;;;;;;;;;;;5.68;77.04;100760.19;5024580;28;19929;-88
2021/12/02 18:29:22;;;;;;;;;;;;;;;5.66;77.16;100765.56;5027161;28;19933;-87
2021/12/02 18:31:48;;;;;;;;;;;;;;;5.64;77.38;100764.78;5025249;28;19929;-87
2021/12/02 18:34:15;;;;;;;;;;;;;;;5.62;77.43;100772.81;5026152;28;19937;-88
2021/12/02 18:36:43;;;;;;;;;;;;;;;5.59;77.57;100767.66;5020979;28;19992;-86
2021/12/02 18:39:14;;;;;;;;;;;;;;;5.59;77.89;100772.09;5021325;28;19941;-87
2021/12/02 18:41:41;;;;;;;;;;;;;;;5.56;77.84;100783.72;5022833;28;21155;-87
2021/12/02 18:44:09;;;;;;;;;;;;;;;5.55;78.07;100782.00;5022001;28;19938;-87
2021/12/02 18:46:38;;;;;;;;;;;;;;;5.56;78.35;100791.69;5021341;28;19991;-88
2021/12/02 18:49:05;;;;;;;;;;;;;;;5.60;78.50;100795.03;5024638;28;19913;-87
2021/12/02 18:51:33;;;;;;;;;;;;;;;5.63;78.70;100797.50;5022125;28;19929;-87
2021/12/02 18:54:00;;;;;;;;;;;;;;;5.63;78.62;100801.03;5021171;28;20056;-87
2021/12/02 18:56:27;;;;;;;;;;;;;;;5.61;78.58;100794.97;5019591;28;19936;-86
2021/12/02 18:58:54;;;;;;;;;;;;;;;5.59;78.31;100798.59;5019660;28;19965;-87
2021/12/02 19:01:22;;;;;;;;;;;;;;;5.56;78.26;100807.56;5024209;28;19948;-88
2021/12/02 19:03:50;;;;;;;;;;;;;;;5.54;78.58;100811.22;5024360;28;19933;-88
2021/12/02 19:06:23;;;;;;;;;;;;;;;5.54;77.78;100805.91;5027988;28;19936;-87
2021/12/02 19:22:48;;;;;;;;;;;;;;;5.35;78.88;100814.81;5020560;28;19964;-86
2021/12/02 19:28:05;;;;;;;;;;;;;;;5.28;78.94;100817.88;5023886;28;19932;-87
2021/12/02 19:30:32;;;;;;;;;;;;;;;5.29;79.31;100823.06;5022719;28;19932;-88
2021/12/02 19:32:58;;;;;;;;;;;;;;;5.31;79.13;100821.19;5023363;28;19932;-88
2021/12/02 19:35:26;;;;;;;;;;;;;;;5.30;79.00;100829.22;5026225;28;19999;-87
2021/12/02 19:37:54;;;;;;;;;;;;;;;5.26;78.87;100821.44;5025483;28;19948;-88
2021/12/02 19:40:21;;;;;;;;;;;;;;;5.24;79.07;100825.09;5026905;28;19932;-88
2021/12/02 19:42:48;;;;;;;;;;;;;;;5.23;79.23;100833.97;5023449;28;19968;-88
2021/12/02 19:45:18;;;;;;;;;;;;;;;5.18;78.87;100828.91;5024968;28;19930;-87
2021/12/02 19:47:46;;;;;;;;;;;;;;;5.16;79.04;100832.53;5020765;28;19968;-87
2021/12/02 19:50:12;;;;;;;;;;;;;;;5.15;79.09;100838.78;5024523;28;19925;-88
2021/12/02 19:52:39;;;;;;;;;;;;;;;5.13;79.41;100838.84;5024454;28;19933;-87
2021/12/02 19:55:06;;;;;;;;;;;;;;;5.14;79.29;100835.28;5022466;28;19940;-87
2021/12/02 19:57:33;;;;;;;;;;;;;;;5.16;79.58;100840.50;5025353;28;19952;-87
2021/12/02 20:00:00;;;;;;;;;;;;;;;5.17;79.40;100844.88;5000952;28;19961;-87
2021/12/02 20:02:28;;;;;;;;;;;;;;;5.18;79.46;100836.84;5004368;28;19913;-88
2021/12/02 20:04:54;;;;;;;;;;;;;;;5.16;79.64;100844.00;5002891;28;19914;-87
2021/12/02 20:07:21;;;;;;;;;;;;;;;5.16;79.69;100849.31;5006996;28;19976;-88
2021/12/02 20:09:48;;;;;;;;;;;;;;;5.16;79.62;100846.66;4986017;28;19932;-87
2021/12/02 20:12:15;;;;;;;;;;;;;;;5.14;79.35;100842.34;5003204;28;19933;-87
2021/12/02 20:14:41;;;;;;;;;;;;;;;5.12;79.50;100842.44;5000470;28;19936;-88
2021/12/02 20:17:11;;;;;;;;;;;;;;;5.13;79.89;100846.81;5006333;28;19938;-88
2021/12/02 20:19:42;;;;;;;;;;;;;;;5.11;79.63;100843.38;5002113;28;20021;-88
2021/12/02 20:22:10;;;;;;;;;;;;;;;5.08;79.82;100846.16;4990228;28;19926;-87